createdAt,value
2018-04-04T00:01:17.642Z,3.77
2018-04-04T00:03:45.139Z,2.33
2018-04-04T00:06:12.655Z,2.17
2018-04-04T00:08:40.198Z,2.93
2018-04-04T00:11:07.759Z,2.60
2018-04-04T00:13:35.271Z,2.30
2018-04-04T00:16:04.311Z,2.80
2018-04-04T00:18:31.871Z,2.53
2018-04-04T00:20:59.390Z,2.53
2018-04-04T00:23:27.674Z,2.60
2018-04-04T00:25:55.955Z,3.53
2018-04-04T00:28:24.217Z,2.30
2018-04-04T00:30:53.238Z,2.60
2018-04-04T00:33:20.741Z,2.93
2018-04-04T00:35:48.259Z,2.73
2018-04-04T00:38:15.751Z,2.20
2018-04-04T00:40:43.262Z,2.50
2018-04-04T00:43:11.538Z,2.27
2018-04-04T00:45:39.827Z,2.53
2018-04-04T00:48:07.347Z,2.90
2018-04-04T00:53:10.574Z,2.80
2018-04-04T00:55:38.903Z,2.20
2018-04-04T00:58:09.383Z,2.50
2018-04-04T01:00:37.667Z,1.90
2018-04-04T01:03:05.930Z,2.30
2018-04-04T01:05:34.223Z,2.90
2018-04-04T01:08:02.487Z,1.93
2018-04-04T01:10:30.775Z,2.47
2018-04-04T01:12:58.302Z,3.10
2018-04-04T01:15:26.579Z,2.20
2018-04-04T01:17:54.091Z,2.30
2018-04-04T01:20:21.602Z,2.20
2018-04-04T01:22:49.102Z,1.93
2018-04-04T01:25:16.618Z,3.03
2018-04-04T01:27:44.887Z,2.33
2018-04-04T01:30:12.409Z,1.90
2018-04-04T01:32:39.947Z,2.90
2018-04-04T01:35:07.466Z,2.50
2018-04-04T01:37:34.967Z,1.93
2018-04-04T01:40:02.518Z,1.70
2018-04-04T01:42:30.020Z,2.10
2018-04-04T01:44:57.538Z,1.73
2018-04-04T01:47:25.043Z,1.77
2018-04-04T01:49:52.562Z,2.00
2018-04-04T01:52:20.063Z,1.93
2018-04-04T01:54:47.581Z,1.80
2018-04-04T01:57:15.079Z,1.67
2018-04-04T01:59:43.403Z,1.77
2018-04-04T02:02:10.911Z,2.03
2018-04-04T02:04:38.442Z,1.97
2018-04-04T02:07:05.947Z,1.53
2018-04-04T02:09:34.246Z,1.50
2018-04-04T02:12:01.829Z,1.63
2018-04-04T02:14:29.366Z,1.60
2018-04-04T02:16:56.883Z,1.73
2018-04-04T02:19:24.396Z,1.87
2018-04-04T02:21:51.914Z,1.70
2018-04-04T02:24:19.410Z,1.60
2018-04-04T02:26:46.930Z,1.50
2018-04-04T02:29:15.201Z,1.60
2018-04-04T02:31:42.791Z,2.00
2018-04-04T02:34:10.298Z,1.70
2018-04-04T02:36:37.812Z,1.53
2018-04-04T02:39:06.002Z,1.40
2018-04-04T02:41:33.533Z,1.77
2018-04-04T02:44:01.803Z,1.50
2018-04-04T02:46:30.086Z,1.57
2018-04-04T02:48:58.348Z,2.00
2018-04-04T02:51:26.627Z,1.50
2018-04-04T02:53:54.896Z,2.73
2018-04-04T02:56:23.184Z,1.30
2018-04-04T02:58:51.455Z,1.73
2018-04-04T03:01:19.739Z,1.60
2018-04-04T03:03:47.998Z,2.10
2018-04-04T03:06:16.278Z,1.73
2018-04-04T03:08:44.573Z,1.43
2018-04-04T03:11:12.141Z,1.60
2018-04-04T03:13:39.649Z,1.10
2018-04-04T03:16:07.175Z,1.67
2018-04-04T03:18:35.137Z,1.47
2018-04-04T03:21:02.654Z,1.47
2018-04-04T03:23:30.918Z,1.30
2018-04-04T03:25:58.434Z,1.60
2018-04-04T03:28:25.932Z,1.77
2018-04-04T03:30:53.450Z,1.50
2018-04-04T03:33:20.946Z,1.33
2018-04-04T03:35:48.462Z,1.60
2018-04-04T03:38:15.960Z,2.10
2018-04-04T03:40:43.481Z,2.00
2018-04-04T03:43:10.987Z,1.43
2018-04-04T03:45:39.283Z,1.60
2018-04-04T03:48:07.568Z,1.33
2018-04-04T03:50:35.095Z,1.50
2018-04-04T03:53:02.599Z,1.33
2018-04-04T03:55:30.122Z,1.40
2018-04-04T03:57:58.390Z,1.83
2018-04-04T04:00:27.410Z,1.43
2018-04-04T04:02:54.979Z,1.60
2018-04-04T04:05:22.503Z,1.50
2018-04-04T04:07:49.999Z,1.33
2018-04-04T04:10:17.530Z,2.00
2018-04-04T04:12:45.794Z,1.57
2018-04-04T04:15:13.295Z,1.70
2018-04-04T04:17:40.814Z,1.27
2018-04-04T04:20:08.308Z,1.30
2018-04-04T04:22:35.826Z,1.40
2018-04-04T04:25:04.099Z,1.20
2018-04-04T04:27:31.695Z,1.37
2018-04-04T04:29:59.199Z,1.73
2018-04-04T04:32:26.714Z,1.33
2018-04-04T04:34:54.218Z,1.30
2018-04-04T04:37:21.727Z,1.50
2018-04-04T04:39:49.219Z,1.40
2018-04-04T04:42:16.734Z,1.60
2018-04-04T04:44:44.997Z,1.27
2018-04-04T04:47:13.291Z,1.53
2018-04-04T04:49:40.786Z,1.20
2018-04-04T04:52:08.295Z,1.30
2018-04-04T04:54:36.560Z,1.20
2018-04-04T04:57:04.839Z,1.63
2018-04-04T04:59:33.109Z,1.50
2018-04-04T05:02:01.388Z,1.50
2018-04-04T05:04:29.686Z,1.33
2018-04-04T05:06:57.199Z,1.30
2018-04-04T05:09:24.698Z,1.50
2018-04-04T05:11:52.210Z,2.07
2018-04-04T05:14:19.707Z,1.30
2018-04-04T05:16:47.986Z,1.50
2018-04-04T05:19:16.261Z,1.97
2018-04-04T05:21:44.542Z,1.07
2018-04-04T05:24:12.034Z,1.10
2018-04-04T05:26:39.546Z,1.03
2018-04-04T05:29:07.105Z,1.20
2018-04-04T05:31:34.583Z,1.40
2018-04-04T05:34:02.086Z,1.07
2018-04-04T05:36:29.598Z,1.93
2018-04-04T05:38:57.102Z,1.83
2018-04-04T05:41:24.610Z,1.00
2018-04-04T05:43:52.106Z,0.90
2018-04-04T05:46:19.623Z,1.20
2018-04-04T05:48:47.134Z,1.00
2018-04-04T05:51:14.649Z,0.83
2018-04-04T05:53:42.192Z,1.33
2018-04-04T05:56:09.683Z,1.40
2018-04-04T05:58:37.186Z,1.00
2018-04-04T06:01:04.702Z,1.50
2018-04-04T06:03:32.198Z,1.03
2018-04-04T06:05:59.714Z,2.90
2018-04-04T06:08:27.210Z,1.67
2018-04-04T06:10:54.711Z,1.53
2018-04-04T06:13:22.228Z,1.23
2018-04-04T06:15:49.732Z,1.47
2018-04-04T06:18:17.246Z,0.93
2018-04-04T06:20:44.748Z,1.20
2018-04-04T06:23:12.267Z,0.90
2018-04-04T06:25:39.771Z,1.10
2018-04-04T06:28:07.299Z,1.23
2018-04-04T06:30:35.566Z,1.33
2018-04-04T06:33:03.846Z,1.60
2018-04-04T06:35:32.106Z,1.53
2018-04-04T06:37:59.645Z,1.80
2018-04-04T06:40:27.148Z,1.07
2018-04-04T06:42:55.426Z,1.10
2018-04-04T06:45:22.930Z,1.00
2018-04-04T06:47:50.446Z,1.53
2018-04-04T06:50:17.946Z,1.63
2018-04-04T06:52:45.733Z,1.57
2018-04-04T06:55:13.230Z,1.20
2018-04-04T06:57:40.752Z,1.30
2018-04-04T07:00:08.255Z,1.07
2018-04-04T07:02:35.770Z,1.07
2018-04-04T07:05:03.276Z,1.60
2018-04-04T07:07:30.839Z,1.60
2018-04-04T07:09:59.074Z,1.17
2018-04-04T07:12:27.351Z,1.10
2018-04-04T07:14:55.618Z,1.20
2018-04-04T07:17:23.129Z,0.90
2018-04-04T07:19:50.627Z,1.20
2018-04-04T07:22:18.143Z,1.80
2018-04-04T07:24:45.639Z,1.20
2018-04-04T07:27:13.151Z,1.40
2018-04-04T07:29:40.658Z,1.33
2018-04-04T07:32:08.171Z,1.10
2018-04-04T07:34:35.671Z,0.97
2018-04-04T07:37:03.184Z,1.40
2018-04-04T07:39:30.683Z,1.63
2018-04-04T07:41:58.202Z,1.40
2018-04-04T07:44:25.730Z,1.00
2018-04-04T07:46:53.255Z,1.07
2018-04-04T07:49:20.751Z,1.10
2018-04-04T07:51:49.038Z,1.20
2018-04-04T07:54:16.543Z,1.57
2018-04-04T07:56:44.830Z,1.33
2018-04-04T07:59:13.111Z,1.23
2018-04-04T08:01:40.626Z,1.10
2018-04-04T08:04:08.123Z,1.00
2018-04-04T08:06:35.643Z,1.07
2018-04-04T08:09:03.165Z,0.77
2018-04-04T08:11:31.430Z,1.33
2018-04-04T08:13:59.710Z,1.63
2018-04-04T08:16:27.973Z,1.17
2018-04-04T08:18:55.494Z,1.17
2018-04-04T08:21:22.990Z,1.20
2018-04-04T08:23:50.507Z,0.83
2018-04-04T08:26:18.004Z,1.07
2018-04-04T08:28:45.519Z,1.20
2018-04-04T08:31:13.015Z,0.87
2018-04-04T08:33:40.531Z,1.67
2018-04-04T08:36:08.030Z,0.70
2018-04-04T08:38:35.551Z,0.87
2018-04-04T08:41:03.446Z,0.90
2018-04-04T08:43:30.970Z,0.70
2018-04-04T08:45:58.478Z,0.70
2018-04-04T08:48:26.010Z,0.50
2018-04-04T08:50:53.535Z,0.93
2018-04-04T08:53:21.055Z,0.80
2018-04-04T08:55:48.560Z,0.70
2018-04-04T08:58:16.094Z,0.67
2018-04-04T09:00:43.646Z,0.70
2018-04-04T09:03:11.277Z,0.97
2018-04-04T09:05:38.793Z,1.00
2018-04-04T09:08:06.356Z,0.60
2018-04-04T09:10:34.005Z,1.27
2018-04-04T09:13:01.568Z,0.67
2018-04-04T09:15:29.114Z,0.70
2018-04-04T09:17:56.673Z,0.70
2018-04-04T09:20:24.224Z,1.10
2018-04-04T09:22:52.557Z,0.80
2018-04-04T09:27:49.892Z,0.90
2018-04-04T09:30:17.433Z,0.90
2018-04-04T09:32:45.752Z,1.17
2018-04-04T09:35:13.293Z,0.90
2018-04-04T09:37:40.853Z,0.97
2018-04-04T09:40:08.406Z,0.90
2018-04-04T09:42:35.978Z,0.60
2018-04-04T09:45:03.537Z,0.90
2018-04-04T09:47:31.091Z,0.70
2018-04-04T09:49:58.649Z,0.70
2018-04-04T09:52:26.227Z,0.70
2018-04-04T09:54:53.776Z,0.60
2018-04-04T09:57:21.325Z,0.90
2018-04-04T09:59:48.882Z,0.80
2018-04-04T10:02:22.040Z,0.70
2018-04-04T10:04:50.363Z,0.60
2018-04-04T10:07:17.909Z,0.60
2018-04-04T10:09:45.468Z,0.60
2018-04-04T10:12:13.016Z,0.57
2018-04-04T10:14:40.577Z,0.63
2018-04-04T10:17:08.121Z,0.60
2018-04-04T10:19:36.440Z,0.50
2018-04-04T10:22:03.980Z,0.70
2018-04-04T10:24:31.541Z,0.40
2018-04-04T10:26:59.086Z,0.60
2018-04-04T10:29:26.645Z,0.60
2018-04-04T10:31:54.189Z,0.87
2018-04-04T10:34:22.565Z,0.60
2018-04-04T10:36:50.875Z,0.70
2018-04-04T10:39:18.428Z,0.90
2018-04-04T10:41:45.972Z,0.60
2018-04-04T10:44:13.534Z,0.70
2018-04-04T10:46:41.078Z,1.00
2018-04-04T10:49:09.411Z,0.70
2018-04-04T10:51:36.954Z,1.07
2018-04-04T10:54:04.525Z,0.90
2018-04-04T10:56:32.066Z,0.80
2018-04-04T10:58:59.626Z,0.73
2018-04-04T11:01:27.179Z,0.70
2018-04-04T11:03:54.749Z,1.00
2018-04-04T11:06:22.298Z,0.80
2018-04-04T11:08:49.862Z,0.70
2018-04-04T11:11:17.408Z,0.90
2018-04-04T11:13:44.978Z,0.90
2018-04-04T11:16:12.532Z,0.87
2018-04-04T11:18:40.368Z,0.80
2018-04-04T11:21:08.753Z,0.70
2018-04-04T11:23:36.320Z,0.87
2018-04-04T11:26:04.624Z,0.80
2018-04-04T11:28:32.181Z,0.70
2018-04-04T11:30:59.725Z,0.63
2018-04-04T11:33:27.281Z,0.80
2018-04-04T11:35:54.828Z,0.73
2018-04-04T11:38:23.137Z,0.70
2018-04-04T11:40:50.956Z,0.70
2018-04-04T11:43:19.273Z,0.53
2018-04-04T11:45:46.828Z,0.53
2018-04-04T11:48:14.378Z,0.97
2018-04-04T11:50:41.952Z,0.77
2018-04-04T11:53:09.496Z,0.70
2018-04-04T11:55:37.062Z,0.83
2018-04-04T11:58:04.622Z,0.67
2018-04-04T12:00:32.184Z,0.57
2018-04-04T12:02:59.731Z,0.80
2018-04-04T12:05:27.303Z,0.53
2018-04-04T12:07:54.840Z,0.80
2018-04-04T12:10:23.167Z,0.50
2018-04-04T12:12:50.713Z,0.60
2018-04-04T12:15:18.287Z,0.80
2018-04-04T12:17:45.833Z,0.60
2018-04-04T12:20:13.397Z,0.47
2018-04-04T12:22:40.950Z,0.60
2018-04-04T12:25:08.513Z,0.60
2018-04-04T12:27:36.053Z,0.90
2018-04-04T12:30:03.621Z,0.80
2018-04-04T12:32:31.179Z,0.60
2018-04-04T12:34:58.741Z,0.50
2018-04-04T12:37:26.280Z,0.70
2018-04-04T12:39:53.850Z,0.60
2018-04-04T12:42:21.392Z,0.60
2018-04-04T12:44:48.958Z,0.50
2018-04-04T12:47:16.497Z,0.60
2018-04-04T12:49:44.830Z,0.40
2018-04-04T12:52:12.377Z,0.50
2018-04-04T12:54:39.947Z,0.60
2018-04-04T12:57:07.498Z,0.60
2018-04-04T12:59:35.068Z,0.60
2018-04-04T13:02:02.624Z,0.87
2018-04-04T13:04:33.405Z,0.80
2018-04-04T13:07:01.714Z,0.53
2018-04-04T13:09:29.276Z,0.50
2018-04-04T13:11:56.829Z,0.60
2018-04-04T13:14:24.388Z,0.83
2018-04-04T13:16:51.940Z,0.67
2018-04-04T13:19:19.497Z,0.70
2018-04-04T13:21:47.052Z,0.80
2018-04-04T13:24:14.622Z,0.70
2018-04-04T13:26:42.161Z,0.80
2018-04-04T13:29:10.471Z,0.67
2018-04-04T13:31:38.050Z,0.53
2018-04-04T13:34:05.601Z,0.87
2018-04-04T13:36:33.166Z,0.40
2018-04-04T13:39:00.725Z,0.50
2018-04-04T13:41:29.103Z,0.50
2018-04-04T13:43:56.629Z,0.50
2018-04-04T13:46:24.198Z,0.60
2018-04-04T13:48:51.754Z,0.57
2018-04-04T13:51:19.325Z,0.60
2018-04-04T13:53:46.878Z,0.50
2018-04-04T13:56:14.442Z,0.70
2018-04-04T13:58:41.994Z,0.83
2018-04-04T14:01:09.572Z,0.47
2018-04-04T14:03:37.121Z,0.70
2018-04-04T14:06:04.687Z,0.43
2018-04-04T14:08:32.267Z,0.50
2018-04-04T14:11:00.787Z,0.50
2018-04-04T14:13:29.237Z,0.50
2018-04-04T14:15:56.953Z,0.60
2018-04-04T14:18:24.518Z,0.70
2018-04-04T14:20:52.092Z,0.50
2018-04-04T14:23:19.643Z,0.50
2018-04-04T14:25:47.261Z,0.50
2018-04-04T14:28:14.825Z,0.50
2018-04-04T14:30:42.389Z,0.40
2018-04-04T14:33:09.950Z,0.40
2018-04-04T14:35:38.292Z,0.40
2018-04-04T14:38:05.849Z,0.43
2018-04-04T14:40:33.424Z,0.50
2018-04-04T14:43:01.306Z,0.63
2018-04-04T14:45:29.638Z,0.50
2018-04-04T14:47:57.159Z,0.40
2018-04-04T14:50:24.687Z,0.40
2018-04-04T14:52:52.192Z,0.40
2018-04-04T14:55:20.368Z,0.70
2018-04-04T14:57:47.899Z,0.43
2018-04-04T15:00:15.414Z,0.50
2018-04-04T15:02:42.920Z,0.57
2018-04-04T15:05:10.476Z,0.40
2018-04-04T15:07:37.989Z,1.40
2018-04-04T15:10:05.517Z,0.60
2018-04-04T15:12:33.036Z,0.67
2018-04-04T15:15:01.320Z,0.60
2018-04-04T15:17:29.707Z,0.50
2018-04-04T15:19:57.706Z,0.40
2018-04-04T15:22:26.172Z,0.53
2018-04-04T15:24:53.755Z,0.60
2018-04-04T15:27:21.268Z,1.27
2018-04-04T15:29:48.788Z,0.57
2018-04-04T15:32:16.318Z,0.40
2018-04-04T15:34:43.824Z,0.60
2018-04-04T15:37:11.379Z,0.63
2018-04-04T15:39:39.665Z,0.57
2018-04-04T15:42:07.956Z,0.73
2018-04-04T15:44:35.476Z,0.40
2018-04-04T15:47:02.997Z,0.97
2018-04-04T15:49:30.520Z,0.40
2018-04-04T15:51:58.820Z,0.50
2018-04-04T15:54:26.332Z,0.77
2018-04-04T15:56:53.856Z,0.40
2018-04-04T15:59:21.377Z,0.50
2018-04-04T16:01:48.915Z,0.60
2018-04-04T16:04:16.430Z,0.67
2018-04-04T16:06:43.955Z,0.70
2018-04-04T16:09:11.475Z,0.40
2018-04-04T16:11:39.434Z,0.60
2018-04-04T16:14:06.943Z,0.70
2018-04-04T16:16:35.243Z,0.93
2018-04-04T16:19:03.699Z,1.30
2018-04-04T16:21:31.256Z,1.63
2018-04-04T16:24:00.029Z,1.37
2018-04-04T16:26:27.561Z,1.70
2018-04-04T16:28:55.075Z,2.17
2018-04-04T16:31:22.651Z,1.73
2018-04-04T16:33:50.165Z,1.70
2018-04-04T16:36:18.486Z,1.80
2018-04-04T16:38:45.991Z,2.03
2018-04-04T16:41:13.534Z,2.17
2018-04-04T16:43:41.054Z,1.90
2018-04-04T16:46:08.579Z,1.63
2018-04-04T16:48:36.098Z,1.70
2018-04-04T16:51:03.883Z,1.60
2018-04-04T16:53:32.409Z,3.50
2018-04-04T16:55:59.921Z,1.93
2018-04-04T16:58:27.456Z,1.40
2018-04-04T17:00:54.968Z,1.43
2018-04-04T17:03:22.504Z,1.40
2018-04-04T17:05:50.002Z,1.47
2018-04-04T17:08:17.520Z,1.27
2018-04-04T17:10:45.037Z,1.17
2018-04-04T17:13:13.226Z,1.33
2018-04-04T17:15:40.749Z,1.30
2018-04-04T17:18:08.314Z,1.10
2018-04-04T17:20:35.882Z,0.90
2018-04-04T17:23:03.446Z,1.27
2018-04-04T17:25:30.953Z,0.90
2018-04-04T17:28:00.012Z,1.63
2018-04-04T17:30:27.522Z,1.10
2018-04-04T17:32:55.810Z,0.70
2018-04-04T17:35:23.323Z,0.93
2018-04-04T17:37:50.847Z,1.00
2018-04-04T17:40:18.351Z,1.10
2018-04-04T17:42:45.870Z,1.17
2018-04-04T17:45:13.365Z,0.90
2018-04-04T17:47:40.888Z,1.03
2018-04-04T17:50:08.390Z,1.00
2018-04-04T17:52:36.671Z,0.80
2018-04-04T17:55:04.935Z,0.80
2018-04-04T17:57:32.455Z,0.73
2018-04-04T17:59:59.951Z,1.00
2018-04-04T18:02:27.461Z,0.73
2018-04-04T18:04:54.959Z,0.80
2018-04-04T18:07:22.498Z,0.77
2018-04-04T18:09:49.999Z,0.87
2018-04-04T18:12:18.282Z,0.80
2018-04-04T18:14:46.542Z,0.70
2018-04-04T18:17:14.886Z,1.10
2018-04-04T18:19:43.154Z,0.60
2018-04-04T18:22:10.676Z,0.40
2018-04-04T18:24:38.183Z,0.50
2018-04-04T18:27:05.699Z,0.60
2018-04-04T18:29:33.203Z,0.63
2018-04-04T18:32:00.718Z,0.60
2018-04-04T18:34:28.218Z,0.50
2018-04-04T18:36:55.720Z,0.70
2018-04-04T18:39:23.243Z,0.60
2018-04-04T18:41:50.842Z,0.50
2018-04-04T18:44:18.359Z,0.60
2018-04-04T18:46:45.853Z,0.63
2018-04-04T18:49:14.126Z,0.57
2018-04-04T18:51:42.398Z,0.80
2018-04-04T18:54:10.679Z,0.77
2018-04-04T18:56:38.944Z,0.60
2018-04-04T18:59:07.233Z,0.60
2018-04-04T19:01:35.533Z,0.70
2018-04-04T19:04:03.026Z,0.60
2018-04-04T19:06:30.527Z,0.73
2018-04-04T19:08:58.087Z,0.73
2018-04-04T19:11:25.578Z,0.60
2018-04-04T19:13:53.087Z,0.63
2018-04-04T19:16:21.391Z,0.60
2018-04-04T19:18:48.899Z,0.83
2018-04-04T19:21:16.386Z,1.17
2018-04-04T19:23:44.666Z,1.43
2018-04-04T19:26:12.931Z,1.63
2018-04-04T19:28:41.208Z,2.50
2018-04-04T19:31:09.466Z,1.10
2018-04-04T19:33:37.778Z,0.77
2018-04-04T19:36:05.345Z,0.90
2018-04-04T19:38:32.890Z,1.37
2018-04-04T19:41:01.151Z,1.00
2018-04-04T19:43:29.430Z,0.67
2018-04-04T19:45:57.698Z,0.60
2018-04-04T19:48:25.971Z,0.50
2018-04-04T19:50:53.467Z,0.80
2018-04-04T19:53:20.973Z,0.90
2018-04-04T19:55:48.470Z,1.20
2018-04-04T19:58:15.978Z,0.70
2018-04-04T20:00:43.465Z,0.90
2018-04-04T20:03:11.739Z,0.50
2018-04-04T20:05:40.040Z,0.50
2018-04-04T20:08:07.550Z,0.77
2018-04-04T20:10:35.046Z,0.50
2018-04-04T20:13:03.323Z,0.80
2018-04-04T20:15:31.577Z,0.80
2018-04-04T20:17:59.095Z,0.70
2018-04-04T20:20:26.618Z,0.60
2018-04-04T20:22:54.885Z,0.50
2018-04-04T20:25:23.205Z,0.60
2018-04-04T20:27:50.695Z,0.60
2018-04-04T20:30:18.185Z,0.70
2018-04-04T20:32:46.462Z,0.67
2018-04-04T20:35:14.723Z,0.67
2018-04-04T20:37:43.010Z,0.80
2018-04-04T20:40:11.267Z,1.17
2018-04-04T20:42:40.117Z,1.77
2018-04-04T20:45:07.626Z,2.47
2018-04-04T20:47:35.891Z,1.63
2018-04-04T20:50:04.265Z,0.90
2018-04-04T20:52:31.860Z,1.63
2018-04-04T20:54:59.370Z,0.90
2018-04-04T20:57:26.859Z,0.63
2018-04-04T20:59:55.139Z,1.10
2018-04-04T21:02:23.396Z,0.73
2018-04-04T21:04:50.908Z,0.87
2018-04-04T21:07:18.402Z,1.10
2018-04-04T21:09:45.907Z,0.90
2018-04-04T21:12:13.395Z,1.20
2018-04-04T21:14:40.910Z,0.80
2018-04-04T21:17:08.402Z,0.60
2018-04-04T21:19:35.925Z,0.83
2018-04-04T21:22:03.490Z,0.80
2018-04-04T21:24:31.004Z,0.90
2018-04-04T21:26:58.494Z,0.80
2018-04-04T21:29:26.770Z,0.97
2018-04-04T21:31:55.031Z,0.60
2018-04-04T21:34:23.307Z,0.73
2018-04-04T21:36:51.562Z,0.60
2018-04-04T21:39:19.070Z,0.80
2018-04-04T21:41:46.562Z,0.60
2018-04-04T21:44:14.071Z,0.63
2018-04-04T21:46:42.334Z,0.67
2018-04-04T21:49:10.606Z,0.70
2018-04-04T21:51:38.093Z,0.50
2018-04-04T21:54:05.624Z,0.70
2018-04-04T21:56:33.921Z,0.60
2018-04-04T21:59:01.421Z,0.70
2018-04-04T22:01:28.914Z,0.73
2018-04-04T22:03:57.181Z,0.83
2018-04-04T22:06:26.182Z,1.00
2018-04-04T22:08:53.690Z,0.57
2018-04-04T22:11:21.179Z,0.60
2018-04-04T22:13:48.694Z,0.60
2018-04-04T22:16:16.186Z,0.67
2018-04-04T22:18:43.695Z,0.80
2018-04-04T22:21:11.186Z,0.50
2018-04-04T22:23:38.689Z,0.60
2018-04-04T22:26:06.942Z,0.63
2018-04-04T22:28:34.513Z,0.60
2018-04-04T22:31:02.819Z,1.20
2018-04-04T22:33:31.192Z,0.60
2018-04-04T22:35:58.696Z,0.70
2018-04-04T22:38:26.254Z,0.70
2018-04-04T22:40:53.822Z,0.70
2018-04-04T22:43:21.370Z,0.67
2018-04-04T22:45:48.874Z,0.57
2018-04-04T22:48:17.152Z,0.50
2018-04-04T22:50:45.441Z,0.70
2018-04-04T22:53:13.739Z,0.50
2018-04-04T22:55:41.281Z,0.70
2018-04-04T22:58:08.820Z,0.80
2018-04-04T23:00:37.138Z,0.50
2018-04-04T23:03:04.677Z,0.50
2018-04-04T23:05:32.233Z,0.70
2018-04-04T23:07:59.768Z,0.70
2018-04-04T23:10:27.940Z,0.80
2018-04-04T23:12:55.635Z,0.80
2018-04-04T23:15:23.185Z,0.70
2018-04-04T23:17:50.725Z,0.60
2018-04-04T23:20:19.053Z,0.80
2018-04-04T23:22:46.632Z,0.60
2018-04-04T23:25:14.193Z,0.80
2018-04-04T23:27:41.724Z,0.60
2018-04-04T23:30:09.300Z,0.70
2018-04-04T23:32:36.856Z,0.70
2018-04-04T23:35:04.409Z,0.70
2018-04-04T23:37:31.941Z,0.70
2018-04-04T23:39:59.488Z,0.70
2018-04-04T23:42:27.807Z,0.57
2018-04-04T23:44:55.376Z,0.67
2018-04-04T23:47:22.908Z,1.07
2018-04-04T23:49:50.464Z,0.60
2018-04-04T23:52:18.008Z,0.47
2018-04-04T23:54:45.565Z,0.83
2018-04-04T23:57:13.865Z,0.53
2018-04-04T23:59:41.422Z,1.10
